Time;durP1;ratioP1;P1;durP2;ratioP2;P2;SDS_P1;SDS_P2;PMS_P1;PMS_P2;Temp;Humidity;BMP_temperature;BMP_pressure;BME280_temperature;BME280_humidity;BME280_pressure;Samples;Min_cycle;Max_cycle;Signal;HPM_P1;HPM_P2
2024/02/14 11:26:02;;;;;;;;;23.50;23.00;;;;;;;;5123362;27;14247;-68
2024/02/14 11:28:29;;;;;;;;;26.50;24.75;;;;;;;;5108089;28;9630;-69
2024/02/14 11:30:59;;;;;;;;;27.00;24.75;;;;;;;;5107857;28;9752;-68
2024/02/14 11:33:26;;;;;;;;;22.50;22.00;;;;;;;;5107667;28;9494;-68
2024/02/14 11:35:52;;;;;;;;;26.25;23.00;;;;;;;;5106392;28;9445;-69
2024/02/14 11:38:19;;;;;;;;;28.00;27.25;;;;;;;;5107762;28;9591;-69
2024/02/14 11:40:44;;;;;;;;;27.50;26.00;;;;;;;;5107573;28;10092;-68
2024/02/14 11:43:14;;;;;;;;;28.25;24.50;;;;;;;;5107575;28;12212;-69
2024/02/14 11:45:41;;;;;;;;;16.50;16.50;;;;;;;;5107819;28;8863;-69
2024/02/14 11:48:07;;;;;;;;;21.50;17.75;;;;;;;;5107143;28;11062;-69
2024/02/14 11:50:32;;;;;;;;;49.25;38.75;;;;;;;;5107225;28;10125;-68
2024/02/14 11:52:58;;;;;;;;;35.25;32.00;;;;;;;;5104428;28;8797;-68
2024/02/14 11:55:28;;;;;;;;;26.50;24.25;;;;;;;;5107117;28;9805;-68
2024/02/14 11:57:54;;;;;;;;;26.00;24.00;;;;;;;;5106894;28;10806;-68
2024/02/14 12:00:19;;;;;;;;;25.00;24.00;;;;;;;;5106620;28;10922;-68
2024/02/14 12:02:44;;;;;;;;;20.00;20.00;;;;;;;;5104964;28;8838;-68
2024/02/14 12:05:10;;;;;;;;;37.75;34.25;;;;;;;;5106607;28;8853;-69
2024/02/14 12:07:35;;;;;;;;;32.00;30.50;;;;;;;;5105265;27;8823;-68
2024/02/14 12:10:00;;;;;;;;;27.25;25.50;;;;;;;;5105722;28;8818;-68
2024/02/14 12:12:26;;;;;;;;;31.25;27.50;;;;;;;;5105169;27;8800;-69
2024/02/14 12:14:52;;;;;;;;;22.00;19.75;;;;;;;;5114228;27;8865;-69
2024/02/14 12:17:21;;;;;;;;;23.25;22.75;;;;;;;;5100866;28;9617;-70
2024/02/14 12:19:48;;;;;;;;;21.25;17.25;;;;;;;;5090038;27;8912;-69
2024/02/14 12:22:19;;;;;;;;;21.50;20.25;;;;;;;;5096164;28;11032;-70
2024/02/14 12:24:45;;;;;;;;;18.00;14.00;;;;;;;;5098181;28;12255;-70
2024/02/14 12:27:10;;;;;;;;;16.00;15.00;;;;;;;;5106070;28;10903;-69
2024/02/14 12:29:36;;;;;;;;;17.50;16.25;;;;;;;;5104751;28;8881;-69
2024/02/14 12:32:07;;;;;;;;;13.50;13.50;;;;;;;;5106425;28;8796;-69
2024/02/14 12:34:33;;;;;;;;;17.25;16.25;;;;;;;;5104711;28;8826;-69
2024/02/14 12:36:59;;;;;;;;;20.75;20.00;;;;;;;;5093903;28;11438;-68
2024/02/14 12:39:26;;;;;;;;;17.50;16.25;;;;;;;;5092417;28;8834;-68
2024/02/14 12:41:52;;;;;;;;;21.25;17.50;;;;;;;;5092349;28;11434;-68
2024/02/14 12:44:17;;;;;;;;;17.75;16.00;;;;;;;;5091432;28;11495;-70
2024/02/14 12:46:42;;;;;;;;;24.00;19.75;;;;;;;;5092889;28;11098;-72
2024/02/14 12:49:09;;;;;;;;;17.50;16.00;;;;;;;;5091423;28;8811;-71
2024/02/14 12:51:38;;;;;;;;;17.50;17.25;;;;;;;;5093021;28;8957;-72
2024/02/14 12:54:03;;;;;;;;;18.00;15.00;;;;;;;;5090826;28;8816;-72
2024/02/14 12:56:29;;;;;;;;;19.50;17.25;;;;;;;;5092530;28;11447;-72
2024/02/14 12:58:54;;;;;;;;;18.00;16.00;;;;;;;;5090840;28;8816;-72
2024/02/14 13:01:20;;;;;;;;;18.50;15.50;;;;;;;;5065156;28;8944;-72
2024/02/14 13:03:45;;;;;;;;;19.00;18.25;;;;;;;;5073012;28;8777;-72
2024/02/14 13:06:16;;;;;;;;;21.50;19.75;;;;;;;;5112737;28;8856;-73
2024/02/14 13:08:41;;;;;;;;;21.00;17.50;;;;;;;;5112501;28;8891;-72
2024/02/14 13:11:08;;;;;;;;;14.75;14.75;;;;;;;;5112818;28;11386;-71
2024/02/14 13:13:34;;;;;;;;;16.75;16.50;;;;;;;;5111460;28;8780;-70
2024/02/14 13:16:00;;;;;;;;;15.00;13.00;;;;;;;;5091526;28;10972;-71
2024/02/14 13:18:25;;;;;;;;;15.50;12.75;;;;;;;;5089573;28;11235;-70
2024/02/14 13:20:57;;;;;;;;;17.50;14.25;;;;;;;;5086669;28;8801;-71
2024/02/14 13:23:23;;;;;;;;;15.50;14.00;;;;;;;;5080324;28;8772;-72
2024/02/14 13:25:48;;;;;;;;;15.50;13.50;;;;;;;;5108092;28;11447;-75
2024/02/14 13:28:14;;;;;;;;;11.00;11.00;;;;;;;;5112033;28;11037;-68
2024/02/14 13:30:40;;;;;;;;;13.00;11.00;;;;;;;;5112300;28;8768;-67
2024/02/14 13:33:05;;;;;;;;;12.00;11.50;;;;;;;;5094311;28;8826;-67
2024/02/14 13:35:31;;;;;;;;;10.50;10.50;;;;;;;;5086607;28;8820;-68
2024/02/14 13:37:57;;;;;;;;;14.50;10.75;;;;;;;;5091515;28;8908;-69
2024/02/14 13:40:23;;;;;;;;;16.25;11.50;;;;;;;;5091654;28;10954;-67
2024/02/14 13:42:48;;;;;;;;;14.75;10.25;;;;;;;;5091512;28;11016;-67
2024/02/14 13:45:16;;;;;;;;;13.50;11.25;;;;;;;;5090017;28;8883;-68
2024/02/14 13:47:44;;;;;;;;;14.75;11.25;;;;;;;;5089429;28;9557;-67
2024/02/14 13:50:10;;;;;;;;;14.25;13.00;;;;;;;;5091139;28;10910;-68
2024/02/14 13:52:35;;;;;;;;;13.50;13.50;;;;;;;;5090764;28;11056;-68
2024/02/14 14:41:58;;;;;;;;;13.75;13.25;;;;;;;;5104771;27;13401;-71
2024/02/14 14:44:27;;;;;;;;;12.00;12.00;;;;;;;;5107216;28;11572;-71
2024/02/14 14:46:53;;;;;;;;;12.25;11.50;;;;;;;;5101555;28;11530;-70
2024/02/14 14:49:18;;;;;;;;;14.75;12.00;;;;;;;;5107734;28;11416;-71
2024/02/14 14:51:43;;;;;;;;;15.50;15.00;;;;;;;;5095729;28;11545;-71
2024/02/14 14:54:09;;;;;;;;;14.00;14.00;;;;;;;;5085832;28;8818;-71
2024/02/14 14:56:34;;;;;;;;;17.50;15.25;;;;;;;;5087328;28;8787;-71
2024/02/14 14:59:03;;;;;;;;;15.00;14.00;;;;;;;;5086224;28;8807;-70
2024/02/14 15:01:29;;;;;;;;;19.00;16.75;;;;;;;;5087245;28;8813;-72
2024/02/14 15:03:54;;;;;;;;;15.75;14.00;;;;;;;;5086311;28;11445;-71
2024/02/14 15:06:20;;;;;;;;;13.50;11.50;;;;;;;;5086899;28;11454;-69
2024/02/14 15:08:47;;;;;;;;;12.00;12.00;;;;;;;;5095968;28;8788;-69
2024/02/14 15:11:14;;;;;;;;;11.75;11.50;;;;;;;;5107863;28;8840;-68
2024/02/14 15:13:40;;;;;;;;;12.75;11.50;;;;;;;;5107300;28;10999;-69
2024/02/14 15:16:07;;;;;;;;;13.25;10.00;;;;;;;;5106813;28;10786;-69
2024/02/14 15:18:33;;;;;;;;;11.00;10.00;;;;;;;;5105774;28;8780;-70
2024/02/14 15:20:58;;;;;;;;;11.50;8.00;;;;;;;;5102205;28;10704;-70
2024/02/14 15:23:24;;;;;;;;;16.75;11.75;;;;;;;;5104652;28;8792;-70
2024/02/14 15:25:49;;;;;;;;;10.00;9.00;;;;;;;;5106431;28;8772;-71
2024/02/14 15:28:21;;;;;;;;;12.00;10.50;;;;;;;;5106323;28;8792;-70
2024/02/14 15:33:30;;;;;;;;;12.25;11.75;;;;;;;;5103905;28;10795;-70
2024/02/14 15:36:06;;;;;;;;;13.75;11.00;;;;;;;;5104974;28;10896;-71
2024/02/14 15:38:31;;;;;;;;;11.00;11.00;;;;;;;;5105965;28;8772;-70
2024/02/14 15:41:05;;;;;;;;;12.00;11.25;;;;;;;;5105808;28;11127;-70
2024/02/14 15:43:32;;;;;;;;;10.00;10.00;;;;;;;;5105234;28;8811;-70
2024/02/14 15:46:00;;;;;;;;;14.25;10.25;;;;;;;;5104303;27;10974;-68
2024/02/14 15:48:28;;;;;;;;;12.50;11.00;;;;;;;;5106232;28;10898;-71
2024/02/14 15:50:53;;;;;;;;;11.50;10.50;;;;;;;;5105047;28;10790;-72
2024/02/14 15:53:18;;;;;;;;;11.50;9.00;;;;;;;;5091882;28;11018;-70
2024/02/14 15:55:45;;;;;;;;;10.00;9.75;;;;;;;;5092657;28;8914;-78
2024/02/14 15:58:11;;;;;;;;;12.00;11.25;;;;;;;;5109895;28;8870;-68
2024/02/14 16:00:36;;;;;;;;;12.25;10.50;;;;;;;;5113248;28;10749;-68
2024/02/14 16:03:02;;;;;;;;;15.00;12.00;;;;;;;;5112556;28;8896;-68
2024/02/14 16:05:28;;;;;;;;;14.00;12.25;;;;;;;;5112259;28;8797;-68
2024/02/14 16:07:54;;;;;;;;;17.00;13.75;;;;;;;;5097816;28;8798;-68
2024/02/14 16:10:20;;;;;;;;;12.25;12.25;;;;;;;;5112255;28;11722;-68
2024/02/14 16:12:46;;;;;;;;;15.50;15.00;;;;;;;;5112086;28;11544;-68
2024/02/14 16:15:12;;;;;;;;;16.00;15.00;;;;;;;;5111992;28;8777;-69
2024/02/14 16:17:38;;;;;;;;;13.50;11.75;;;;;;;;5109677;28;11058;-68
2024/02/14 16:20:06;;;;;;;;;19.50;15.50;;;;;;;;5113129;28;8921;-69
2024/02/14 16:22:31;;;;;;;;;15.25;14.75;;;;;;;;5102845;28;11062;-69
2024/02/14 16:24:56;;;;;;;;;17.50;15.75;;;;;;;;5092445;28;11110;-68
2024/02/14 16:27:22;;;;;;;;;18.00;16.00;;;;;;;;5103541;28;8801;-70
2024/02/14 16:29:48;;;;;;;;;16.25;16.00;;;;;;;;5111646;28;8794;-69
2024/02/14 16:32:13;;;;;;;;;23.25;21.75;;;;;;;;5112921;28;8785;-69
2024/02/14 16:34:39;;;;;;;;;15.00;15.00;;;;;;;;5104665;28;11328;-69
2024/02/14 16:37:04;;;;;;;;;22.00;19.75;;;;;;;;5089872;28;8792;-69
2024/02/14 16:39:29;;;;;;;;;21.25;18.75;;;;;;;;5089859;28;8780;-69
2024/02/14 16:41:57;;;;;;;;;20.75;20.75;;;;;;;;5091384;28;9525;-68
2024/02/14 16:44:24;;;;;;;;;21.00;18.50;;;;;;;;5091707;28;8788;-68
2024/02/14 16:46:49;;;;;;;;;15.50;13.25;;;;;;;;5088510;28;11476;-68
2024/02/14 16:49:16;;;;;;;;;18.50;16.25;;;;;;;;5089717;28;11194;-69
2024/02/14 16:51:41;;;;;;;;;14.75;14.75;;;;;;;;5091469;28;8824;-68
2024/02/14 16:54:09;;;;;;;;;19.25;16.00;;;;;;;;5091215;28;11127;-67
2024/02/14 16:56:34;;;;;;;;;21.00;16.00;;;;;;;;5089562;28;8804;-67
2024/02/14 16:58:59;;;;;;;;;11.25;10.75;;;;;;;;5090847;28;11122;-67
2024/02/14 17:01:25;;;;;;;;;23.00;19.00;;;;;;;;5090991;28;8820;-67
2024/02/14 17:03:50;;;;;;;;;21.25;18.00;;;;;;;;5089929;28;8796;-67
2024/02/14 17:06:19;;;;;;;;;31.75;25.75;;;;;;;;5091238;28;8770;-68
2024/02/14 17:08:45;;;;;;;;;25.00;22.00;;;;;;;;5090533;28;8813;-67
2024/02/14 17:11:14;;;;;;;;;24.00;22.25;;;;;;;;5090633;28;11456;-68
2024/02/14 17:13:40;;;;;;;;;23.00;21.25;;;;;;;;5090503;28;8768;-67
2024/02/14 17:16:05;;;;;;;;;22.00;20.25;;;;;;;;5088773;28;11472;-67
2024/02/14 17:18:32;;;;;;;;;21.50;19.50;;;;;;;;5090462;28;8796;-68
2024/02/14 17:20:57;;;;;;;;;21.75;18.25;;;;;;;;5089938;28;8828;-68
2024/02/14 17:23:23;;;;;;;;;21.25;21.25;;;;;;;;5086255;28;11585;-68
2024/02/14 17:25:49;;;;;;;;;22.00;19.50;;;;;;;;5081650;28;8981;-68
2024/02/14 17:28:14;;;;;;;;;23.25;21.75;;;;;;;;5090295;28;8800;-73
2024/02/14 17:30:39;;;;;;;;;29.75;25.25;;;;;;;;5091354;28;8800;-69
2024/02/14 17:33:05;;;;;;;;;27.25;26.00;;;;;;;;5091352;28;8784;-70
2024/02/14 17:35:30;;;;;;;;;29.50;27.25;;;;;;;;5089505;28;8832;-71
2024/02/14 17:37:56;;;;;;;;;26.50;23.00;;;;;;;;5106092;28;8801;-70
2024/02/14 17:40:21;;;;;;;;;25.75;23.50;;;;;;;;5111333;28;8817;-74
2024/02/14 17:42:46;;;;;;;;;26.00;25.00;;;;;;;;5111497;28;8889;-68
2024/02/14 17:45:13;;;;;;;;;28.50;27.25;;;;;;;;5111262;28;8781;-70
2024/02/14 17:47:38;;;;;;;;;32.25;29.25;;;;;;;;5106433;28;8825;-71
2024/02/14 17:50:05;;;;;;;;;25.25;22.25;;;;;;;;5110952;28;11471;-72
2024/02/14 17:52:30;;;;;;;;;25.25;23.75;;;;;;;;5096219;28;8792;-72
2024/02/14 17:54:56;;;;;;;;;24.75;22.50;;;;;;;;5088513;28;11477;-73
2024/02/14 17:57:24;;;;;;;;;23.00;21.25;;;;;;;;5088375;28;8804;-73
2024/02/14 17:59:50;;;;;;;;;23.50;22.25;;;;;;;;5090015;28;8812;-74
2024/02/14 18:02:16;;;;;;;;;23.75;22.00;;;;;;;;5089753;28;11472;-71
2024/02/14 18:04:42;;;;;;;;;20.00;18.50;;;;;;;;5089719;28;8830;-74
2024/02/14 18:07:07;;;;;;;;;22.75;17.75;;;;;;;;5088728;28;11438;-70
2024/02/14 18:09:33;;;;;;;;;17.50;17.00;;;;;;;;5089708;28;8938;-69
2024/02/14 18:11:58;;;;;;;;;19.25;14.75;;;;;;;;5088771;28;8819;-68
2024/02/14 18:14:23;;;;;;;;;21.25;17.50;;;;;;;;5089555;28;8808;-68
2024/02/14 18:16:49;;;;;;;;;15.00;13.50;;;;;;;;5088560;28;8799;-68
2024/02/14 18:19:15;;;;;;;;;18.00;18.00;;;;;;;;5088435;28;9593;-68
2024/02/14 18:21:40;;;;;;;;;26.50;21.50;;;;;;;;5090255;28;8888;-70
2024/02/14 18:24:05;;;;;;;;;17.50;17.50;;;;;;;;5089284;28;9565;-68
2024/02/14 18:26:31;;;;;;;;;18.50;16.50;;;;;;;;5089359;28;8896;-69
2024/02/14 20:38:34;;;;;;;;;32.50;31.50;;;;;;;;5103401;27;13430;-80
2024/02/14 20:40:59;;;;;;;;;32.75;29.25;;;;;;;;5085013;28;12284;-80
2024/02/14 20:43:24;;;;;;;;;31.00;27.25;;;;;;;;5086731;28;8826;-78
2024/02/14 20:45:50;;;;;;;;;34.00;29.50;;;;;;;;5086531;28;9657;-75
2024/02/14 20:48:15;;;;;;;;;27.25;26.75;;;;;;;;5085358;28;8815;-66
2024/02/14 20:50:40;;;;;;;;;33.50;31.00;;;;;;;;5086434;28;8882;-72
2024/02/14 20:53:06;;;;;;;;;31.50;29.50;;;;;;;;5086498;28;8787;-72
2024/02/14 20:55:32;;;;;;;;;28.75;28.25;;;;;;;;5085987;28;8810;-70
2024/02/14 20:57:57;;;;;;;;;38.75;35.00;;;;;;;;5086076;28;8810;-71
2024/02/14 21:00:22;;;;;;;;;24.75;23.00;;;;;;;;5086133;28;8798;-70
2024/02/14 21:02:48;;;;;;;;;30.25;24.75;;;;;;;;5086296;28;8802;-69
2024/02/14 21:05:14;;;;;;;;;18.00;18.00;;;;;;;;5086138;28;8860;-70
2024/02/14 21:07:39;;;;;;;;;29.75;24.50;;;;;;;;5078372;28;8822;-69
2024/02/14 21:10:05;;;;;;;;;32.50;29.75;;;;;;;;5066216;28;11515;-68
2024/02/14 21:12:30;;;;;;;;;30.00;25.00;;;;;;;;5066271;28;8808;-66
2024/02/14 21:14:55;;;;;;;;;28.00;24.00;;;;;;;;5074116;28;8814;-72
2024/02/14 21:17:20;;;;;;;;;34.50;31.00;;;;;;;;5085495;28;8868;-72
2024/02/14 21:19:46;;;;;;;;;33.50;32.50;;;;;;;;5083715;28;8800;-68
2024/02/14 21:22:11;;;;;;;;;32.00;28.75;;;;;;;;5084485;28;8905;-69
2024/02/14 21:24:37;;;;;;;;;30.25;28.50;;;;;;;;5084470;28;8825;-68
2024/02/14 21:27:02;;;;;;;;;30.25;22.75;;;;;;;;5082284;28;8782;-68
2024/02/14 21:29:27;;;;;;;;;32.75;29.50;;;;;;;;5085257;28;8791;-67
2024/02/14 21:31:53;;;;;;;;;33.25;29.75;;;;;;;;5082907;28;8787;-70
2024/02/14 21:34:18;;;;;;;;;16.75;13.00;;;;;;;;5084345;28;8767;-69
2024/02/14 21:36:45;;;;;;;;;31.25;27.50;;;;;;;;5084981;28;8865;-68
2024/02/14 21:39:11;;;;;;;;;33.75;28.00;;;;;;;;5084827;28;8811;-68
2024/02/14 21:41:36;;;;;;;;;29.00;28.50;;;;;;;;5082634;28;11547;-68
2024/02/14 21:44:02;;;;;;;;;35.50;31.75;;;;;;;;5085011;28;8807;-68
2024/02/14 21:46:28;;;;;;;;;29.25;29.25;;;;;;;;5085300;28;8798;-69
2024/02/14 21:48:53;;;;;;;;;42.25;36.50;;;;;;;;5076898;28;8849;-68
2024/02/14 21:51:18;;;;;;;;;32.75;27.50;;;;;;;;5069366;28;8802;-68
2024/02/14 21:53:44;;;;;;;;;33.50;30.50;;;;;;;;5071706;28;8794;-69
2024/02/14 21:56:09;;;;;;;;;35.00;28.00;;;;;;;;5071463;28;8808;-69
2024/02/14 21:58:35;;;;;;;;;37.00;35.50;;;;;;;;5071591;28;8803;-68
2024/02/14 22:01:01;;;;;;;;;32.75;30.50;;;;;;;;5069508;28;9540;-71
2024/02/14 22:03:28;;;;;;;;;43.50;33.00;;;;;;;;5071462;28;8892;-68
2024/02/14 22:05:53;;;;;;;;;38.50;38.25;;;;;;;;5069218;28;8806;-67
2024/02/14 22:08:18;;;;;;;;;43.75;35.75;;;;;;;;5070503;28;11520;-67
2024/02/14 22:10:43;;;;;;;;;35.00;32.75;;;;;;;;5068698;28;8906;-67
2024/02/14 22:13:09;;;;;;;;;36.00;33.25;;;;;;;;5070622;28;8837;-67
2024/02/14 22:15:35;;;;;;;;;32.50;30.25;;;;;;;;5071225;28;8818;-67
2024/02/14 22:18:00;;;;;;;;;37.00;35.25;;;;;;;;5069545;28;8934;-68
2024/02/14 22:20:25;;;;;;;;;41.75;35.50;;;;;;;;5068974;28;8799;-67
2024/02/14 22:22:50;;;;;;;;;24.75;22.50;;;;;;;;5067592;28;8779;-68
2024/02/14 22:25:16;;;;;;;;;34.75;32.75;;;;;;;;5070753;28;8759;-68
2024/02/14 22:27:41;;;;;;;;;37.75;34.25;;;;;;;;5071255;28;8815;-69
2024/02/14 22:30:07;;;;;;;;;41.00;35.75;;;;;;;;5068752;28;8806;-68
2024/02/14 22:32:32;;;;;;;;;34.50;32.75;;;;;;;;5070113;28;8798;-70
2024/02/14 22:34:58;;;;;;;;;38.00;31.50;;;;;;;;5070470;28;8967;-70
2024/02/14 22:37:23;;;;;;;;;40.00;33.00;;;;;;;;5069809;28;8834;-69
2024/02/14 22:39:49;;;;;;;;;39.50;31.50;;;;;;;;5070923;28;8867;-69
2024/02/14 22:42:14;;;;;;;;;34.25;30.75;;;;;;;;5070762;28;8778;-70
2024/02/14 22:44:39;;;;;;;;;34.50;30.00;;;;;;;;5070821;28;8770;-69
2024/02/14 22:47:07;;;;;;;;;35.75;32.75;;;;;;;;5070670;28;8822;-69
2024/02/14 22:49:33;;;;;;;;;32.00;29.00;;;;;;;;5068191;28;8782;-69
2024/02/14 22:51:58;;;;;;;;;38.75;33.75;;;;;;;;5070529;28;11498;-71
2024/02/14 22:54:23;;;;;;;;;37.75;34.50;;;;;;;;5070451;28;8909;-69
2024/02/14 22:56:49;;;;;;;;;34.75;31.25;;;;;;;;5070467;28;8977;-69
2024/02/14 22:59:14;;;;;;;;;22.50;14.25;;;;;;;;5070663;28;8798;-68
2024/02/14 23:01:39;;;;;;;;;31.25;30.00;;;;;;;;5069480;28;8813;-67
2024/02/14 23:04:04;;;;;;;;;35.25;31.00;;;;;;;;5070406;28;8839;-69
2024/02/14 23:06:30;;;;;;;;;40.25;27.75;;;;;;;;5070248;28;8818;-69
2024/02/14 23:08:55;;;;;;;;;28.00;28.00;;;;;;;;5070145;28;8791;-69
2024/02/14 23:11:23;;;;;;;;;29.25;26.00;;;;;;;;5070270;28;8795;-68
2024/02/14 23:13:48;;;;;;;;;33.25;32.50;;;;;;;;5068909;28;8803;-69
2024/02/14 23:16:13;;;;;;;;;36.00;32.75;;;;;;;;5069911;28;12256;-69
2024/02/14 23:18:39;;;;;;;;;29.50;26.00;;;;;;;;5068762;28;8833;-69
2024/02/14 23:21:04;;;;;;;;;36.00;32.25;;;;;;;;5070319;28;8822;-69
2024/02/14 23:23:29;;;;;;;;;29.50;28.75;;;;;;;;5069727;28;8921;-68
2024/02/14 23:25:54;;;;;;;;;30.00;26.50;;;;;;;;5069866;28;8945;-68
2024/02/14 23:28:20;;;;;;;;;26.00;20.75;;;;;;;;5069926;28;8813;-68
2024/02/14 23:30:46;;;;;;;;;25.25;18.75;;;;;;;;5070078;28;8829;-69
2024/02/14 23:33:14;;;;;;;;;34.00;32.00;;;;;;;;5070017;28;8811;-68
2024/02/14 23:35:40;;;;;;;;;32.00;28.00;;;;;;;;5070178;28;8825;-68
2024/02/14 23:38:07;;;;;;;;;26.00;20.00;;;;;;;;5068310;28;11706;-68
2024/02/14 23:40:33;;;;;;;;;33.00;28.75;;;;;;;;5067513;28;8787;-68
2024/02/14 23:42:59;;;;;;;;;29.00;28.75;;;;;;;;5069776;28;11518;-67
2024/02/14 23:45:24;;;;;;;;;26.75;23.25;;;;;;;;5069863;28;8945;-68
2024/02/14 23:47:50;;;;;;;;;35.25;25.50;;;;;;;;5068405;28;11610;-68
